Time;durP1;ratioP1;P1;durP2;ratioP2;P2;SDS_P1;SDS_P2;PMS_P1;PMS_P2;Temp;Humidity;BMP_temperature;BMP_pressure;BME280_temperature;BME280_humidity;BME280_pressure;Samples;Min_cycle;Max_cycle;Signal;HPM_P1;HPM_P2
2022/01/23 00:00:17;;;;;;;4.50;1.83;;;;;;;;;;4985556;28;20509;-65
2022/01/23 00:02:39;;;;;;;6.25;1.17;;;;;;;;;;4969849;28;20058;-65
2022/01/23 00:05:10;;;;;;;8.68;1.23;;;;;;;;;;4969919;28;20051;-64
2022/01/23 00:07:42;;;;;;;7.25;1.63;;;;;;;;;;4950441;29;20515;-64
2022/01/23 00:10:12;;;;;;;15.02;1.90;;;;;;;;;;4950341;29;20055;-65
2022/01/23 00:13:05;;;;;;;13.07;1.85;;;;;;;;;;4950767;29;20059;-69
2022/01/23 00:18:23;;;;;;;7.03;1.30;;;;;;;;;;5008636;28;20214;-65
2022/01/23 00:20:53;;;;;;;8.70;1.48;;;;;;;;;;5008985;28;20057;-65
2022/01/23 00:30:18;;;;;;;5.03;1.27;;;;;;;;;;4961377;28;20054;-65
2022/01/23 00:31:58;;;;;;;6.38;1.73;;;;;;;;;;4969649;28;20059;-65
2022/01/23 00:34:28;;;;;;;5.55;1.75;;;;;;;;;;4921620;28;20051;-65
2022/01/23 00:37:00;;;;;;;4.97;1.55;;;;;;;;;;4956672;28;20050;-66
2022/01/23 00:39:31;;;;;;;7.90;2.22;;;;;;;;;;4988948;28;20056;-65
2022/01/23 00:42:02;;;;;;;10.20;1.77;;;;;;;;;;4988958;28;20050;-65
2022/01/23 00:44:34;;;;;;;5.85;1.85;;;;;;;;;;4918861;29;20051;-65
2022/01/23 00:47:11;;;;;;;8.85;1.60;;;;;;;;;;4951334;28;20059;-65
2022/01/23 00:49:42;;;;;;;8.27;1.83;;;;;;;;;;4954132;29;20055;-66
2022/01/23 00:52:12;;;;;;;10.75;1.98;;;;;;;;;;4953895;29;20047;-64
2022/01/23 00:54:42;;;;;;;7.20;1.67;;;;;;;;;;4954091;29;20059;-65
2022/01/23 00:57:12;;;;;;;11.32;2.03;;;;;;;;;;4896349;29;20053;-65
2022/01/23 00:59:42;;;;;;;6.88;1.60;;;;;;;;;;4850436;29;20053;-64
2022/01/23 01:02:13;;;;;;;5.28;1.58;;;;;;;;;;4896556;29;20100;-64
2022/01/23 01:04:44;;;;;;;8.90;2.05;;;;;;;;;;4881011;29;20065;-65
2022/01/23 01:07:14;;;;;;;5.53;1.63;;;;;;;;;;4892875;29;20052;-64
2022/01/23 01:09:49;;;;;;;4.28;1.45;;;;;;;;;;4915512;29;20056;-65
2022/01/23 01:12:25;;;;;;;7.18;1.92;;;;;;;;;;4915435;29;20067;-64
2022/01/23 01:15:22;;;;;;;8.40;1.75;;;;;;;;;;4925419;28;20054;-65
2022/01/23 01:31:48;;;;;;;6.00;1.83;;;;;;;;;;4939850;28;20055;-64
2022/01/23 01:34:35;;;;;;;5.35;1.60;;;;;;;;;;4943699;28;20056;-64
2022/01/23 01:37:08;;;;;;;6.63;1.73;;;;;;;;;;4914236;29;20046;-65
2022/01/23 01:39:47;;;;;;;7.95;1.60;;;;;;;;;;4924748;29;20059;-64
2022/01/23 01:42:17;;;;;;;4.88;1.33;;;;;;;;;;4914642;29;20068;-65
2022/01/23 01:44:47;;;;;;;8.05;1.67;;;;;;;;;;4906275;29;20057;-65
2022/01/23 01:47:24;;;;;;;5.28;1.60;;;;;;;;;;4895775;29;20061;-65
2022/01/23 01:50:06;;;;;;;5.63;1.90;;;;;;;;;;4877005;29;20544;-65
2022/01/23 01:52:36;;;;;;;8.93;1.75;;;;;;;;;;4910580;29;20052;-64
2022/01/23 01:55:22;;;;;;;9.55;1.90;;;;;;;;;;4880756;29;20074;-66
2022/01/23 01:58:05;;;;;;;6.97;1.75;;;;;;;;;;4895147;29;20060;-65
2022/01/23 02:10:19;;;;;;;6.20;1.50;;;;;;;;;;4952174;29;20055;-66
2022/01/23 02:22:28;;;;;;;5.32;1.33;;;;;;;;;;4943591;29;20048;-64
2022/01/23 02:25:15;;;;;;;6.15;1.70;;;;;;;;;;4951899;29;19933;-65
2022/01/23 02:50:47;;;;;;;7.45;1.52;;;;;;;;;;5025809;28;20061;-65
2022/01/23 02:59:00;;;;;;;;;;;;;;;;;;4891092;29;20422;-66
2022/01/23 03:01:34;;;;;;;9.30;1.40;;;;;;;;;;4874762;29;19928;-67
2022/01/23 03:04:25;;;;;;;9.27;1.17;;;;;;;;;;4866087;29;20057;-63
2022/01/23 03:10:18;;;;;;;5.10;0.95;;;;;;;;;;4851769;29;20061;-70
2022/01/23 03:13:27;;;;;;;4.20;1.05;;;;;;;;;;4854263;29;20070;-67
2022/01/23 03:29:22;;;;;;;6.25;1.13;;;;;;;;;;4874922;29;20063;-65
2022/01/23 03:34:25;;;;;;;5.85;1.42;;;;;;;;;;4893200;29;20085;-64
2022/01/23 03:36:56;;;;;;;4.32;1.23;;;;;;;;;;4904001;29;20063;-63
2022/01/23 03:39:26;;;;;;;6.10;1.23;;;;;;;;;;4933815;29;20071;-63
2022/01/23 03:41:56;;;;;;;6.47;0.98;;;;;;;;;;4879859;29;20056;-64
2022/01/23 03:44:27;;;;;;;4.43;1.20;;;;;;;;;;4855427;29;20581;-63
2022/01/23 03:49:54;;;;;;;6.90;1.23;;;;;;;;;;4840544;29;20058;-64
2022/01/23 03:52:33;;;;;;;5.07;1.50;;;;;;;;;;4821925;29;20058;-63
2022/01/23 03:55:06;;;;;;;5.53;1.42;;;;;;;;;;4822004;29;20073;-65
2022/01/23 03:57:38;;;;;;;5.78;1.40;;;;;;;;;;4804019;29;20059;-71
2022/01/23 04:00:10;;;;;;;4.45;1.30;;;;;;;;;;4789733;29;20546;-66
2022/01/23 04:02:43;;;;;;;3.78;1.50;;;;;;;;;;4858606;29;20061;-64
2022/01/23 04:05:33;;;;;;;4.55;1.27;;;;;;;;;;4858617;29;20057;-65
2022/01/23 04:08:04;;;;;;;5.50;1.85;;;;;;;;;;4839843;29;20054;-67
2022/01/23 04:10:36;;;;;;;4.28;1.42;;;;;;;;;;4839748;29;20503;-65
2022/01/23 04:13:17;;;;;;;6.25;1.60;;;;;;;;;;4827779;29;20053;-64
2022/01/23 04:16:12;;;;;;;9.98;1.90;;;;;;;;;;4813037;29;20088;-63
2022/01/23 04:45:06;;;;;;;7.63;1.50;;;;;;;;;;4968208;28;20050;-64
2022/01/23 05:00:49;;;;;;;6.53;1.58;;;;;;;;;;5010333;28;20065;-65
2022/01/23 05:06:37;;;;;;;3.38;1.60;;;;;;;;;;4932686;29;20059;-65
2022/01/23 05:09:31;;;;;;;5.05;1.70;;;;;;;;;;4945188;29;20439;-65
2022/01/23 05:12:15;;;;;;;6.47;1.77;;;;;;;;;;4940879;29;20059;-65
2022/01/23 05:14:48;;;;;;;4.65;1.90;;;;;;;;;;4900418;29;20051;-65
2022/01/23 05:17:19;;;;;;;5.68;2.42;;;;;;;;;;4932123;29;20514;-65
2022/01/23 05:19:50;;;;;;;3.42;1.55;;;;;;;;;;4913925;29;20048;-66
2022/01/23 05:22:32;;;;;;;6.75;2.40;;;;;;;;;;4878381;29;20090;-65
2022/01/23 05:25:28;;;;;;;3.97;1.65;;;;;;;;;;4875360;29;20056;-66
2022/01/23 05:27:55;;;;;;;8.68;2.00;;;;;;;;;;4875549;29;20057;-65
2022/01/23 05:30:25;;;;;;;4.43;1.42;;;;;;;;;;4890649;29;20053;-65
2022/01/23 05:32:58;;;;;;;6.13;1.90;;;;;;;;;;4875526;29;20063;-65
2022/01/23 05:35:31;;;;;;;8.73;2.05;;;;;;;;;;4875482;29;20048;-65
2022/01/23 05:38:02;;;;;;;6.20;1.75;;;;;;;;;;4886723;29;20057;-65
2022/01/23 05:40:33;;;;;;;4.68;1.80;;;;;;;;;;4904822;29;20063;-65
2022/01/23 05:43:04;;;;;;;8.02;2.40;;;;;;;;;;4941816;28;20408;-66
2022/01/23 05:45:41;;;;;;;9.63;2.00;;;;;;;;;;4893965;29;20444;-65
2022/01/23 05:48:30;;;;;;;6.38;1.50;;;;;;;;;;4919756;29;20056;-65
2022/01/23 05:51:12;;;;;;;4.80;1.60;;;;;;;;;;4894160;29;20437;-65
2022/01/23 05:54:03;;;;;;;6.13;1.60;;;;;;;;;;4894084;29;20421;-65
2022/01/23 05:56:56;;;;;;;4.88;1.95;;;;;;;;;;4893866;29;20064;-65
2022/01/23 05:59:45;;;;;;;5.07;1.70;;;;;;;;;;4900048;29;20060;-65
2022/01/23 06:02:15;;;;;;;3.67;1.50;;;;;;;;;;4887482;29;20056;-65
2022/01/23 06:04:45;;;;;;;4.10;2.05;;;;;;;;;;4886077;29;20049;-65
2022/01/23 06:07:42;;;;;;;7.68;1.85;;;;;;;;;;4856693;29;20080;-65
2022/01/23 06:10:21;;;;;;;5.40;1.73;;;;;;;;;;4874496;29;20064;-65
2022/01/23 06:12:53;;;;;;;4.60;1.58;;;;;;;;;;4875840;29;20058;-65
2022/01/23 06:15:23;;;;;;;3.13;1.70;;;;;;;;;;4842113;29;20058;-65
2022/01/23 06:17:54;;;;;;;3.65;1.77;;;;;;;;;;4877530;29;20105;-64
2022/01/23 06:20:43;;;;;;;7.40;1.85;;;;;;;;;;4865745;29;20053;-65
2022/01/23 06:23:32;;;;;;;6.30;1.80;;;;;;;;;;4897807;29;20060;-65
2022/01/23 06:26:18;;;;;;;3.00;2.40;;;;;;;;;;4898768;29;20044;-65
2022/01/23 06:29:01;;;;;;;3.78;1.83;;;;;;;;;;4893121;29;20049;-64
2022/01/23 06:31:32;;;;;;;6.03;2.03;;;;;;;;;;4919085;29;20055;-65
2022/01/23 06:34:09;;;;;;;7.22;2.13;;;;;;;;;;4912113;29;20063;-65
2022/01/23 06:36:41;;;;;;;6.10;1.92;;;;;;;;;;4865349;29;20049;-66
2022/01/23 06:39:13;;;;;;;5.30;1.70;;;;;;;;;;4927848;29;20564;-66
2022/01/23 06:41:52;;;;;;;3.60;1.77;;;;;;;;;;4926145;29;20063;-66
2022/01/23 06:44:43;;;;;;;8.20;2.17;;;;;;;;;;4855844;29;20054;-65
2022/01/23 06:47:15;;;;;;;3.88;1.75;;;;;;;;;;4878489;29;20061;-65
2022/01/23 06:49:46;;;;;;;5.68;1.70;;;;;;;;;;4874571;29;20045;-66
2022/01/23 06:52:17;;;;;;;7.63;1.73;;;;;;;;;;4855857;29;20053;-65
2022/01/23 06:54:54;;;;;;;14.55;2.47;;;;;;;;;;4866128;29;20411;-66
2022/01/23 06:57:24;;;;;;;3.00;1.50;;;;;;;;;;4875626;29;20067;-66
2022/01/23 06:59:56;;;;;;;4.90;1.95;;;;;;;;;;4855917;29;20049;-66
2022/01/23 07:02:59;;;;;;;8.02;2.35;;;;;;;;;;4877870;29;20053;-66
2022/01/23 07:05:56;;;;;;;13.80;2.03;;;;;;;;;;4869257;29;20058;-65
2022/01/23 07:08:46;;;;;;;10.57;2.00;;;;;;;;;;4855841;29;20062;-66
2022/01/23 07:11:39;;;;;;;11.75;1.90;;;;;;;;;;4855820;29;20068;-66
2022/01/23 07:14:33;;;;;;;8.77;2.03;;;;;;;;;;4859722;29;20061;-66
2022/01/23 07:17:27;;;;;;;11.30;2.00;;;;;;;;;;4878095;29;20061;-66
2022/01/23 07:20:35;;;;;;;10.80;2.00;;;;;;;;;;4860223;29;20069;-66
2022/01/23 07:23:25;;;;;;;5.75;1.90;;;;;;;;;;4877748;29;20068;-66
2022/01/23 07:26:09;;;;;;;8.73;1.88;;;;;;;;;;4858662;29;20066;-65
2022/01/23 07:28:59;;;;;;;5.90;1.73;;;;;;;;;;4858777;29;20061;-66
2022/01/23 07:31:56;;;;;;;12.45;2.00;;;;;;;;;;4834818;29;20047;-66
2022/01/23 07:34:40;;;;;;;8.88;2.13;;;;;;;;;;4816054;29;20073;-66
2022/01/23 07:37:24;;;;;;;6.25;2.10;;;;;;;;;;4806731;29;20055;-65
2022/01/23 07:40:20;;;;;;;5.00;1.70;;;;;;;;;;4768879;30;20059;-66
2022/01/23 07:42:54;;;;;;;7.65;1.95;;;;;;;;;;4785815;29;20070;-65
2022/01/23 07:45:41;;;;;;;5.20;1.75;;;;;;;;;;4786960;29;20059;-66
2022/01/23 07:48:25;;;;;;;7.70;1.85;;;;;;;;;;4823086;29;20058;-66
2022/01/23 07:51:06;;;;;;;8.93;2.15;;;;;;;;;;4867152;29;20097;-66
2022/01/23 07:53:55;;;;;;;7.88;1.90;;;;;;;;;;4900289;29;20052;-65
2022/01/23 07:56:54;;;;;;;8.95;1.60;;;;;;;;;;4915017;29;20078;-66
2022/01/23 07:59:49;;;;;;;8.30;1.70;;;;;;;;;;4920371;29;20437;-65
2022/01/23 08:02:38;;;;;;;12.18;2.33;;;;;;;;;;4882672;29;20514;-65
2022/01/23 08:05:27;;;;;;;7.50;2.15;;;;;;;;;;4882792;29;20075;-66
2022/01/23 08:08:15;;;;;;;5.07;1.63;;;;;;;;;;4928329;29;20052;-65
2022/01/23 08:10:54;;;;;;;8.40;2.00;;;;;;;;;;4952726;28;20055;-63
2022/01/23 08:13:25;;;;;;;6.30;1.92;;;;;;;;;;4970698;28;20510;-65
2022/01/23 08:15:55;;;;;;;14.05;2.28;;;;;;;;;;4959085;28;20545;-65
2022/01/23 08:18:25;;;;;;;9.57;2.17;;;;;;;;;;4975232;28;20061;-66
2022/01/23 08:20:56;;;;;;;7.63;2.05;;;;;;;;;;5004054;28;20058;-65
2022/01/23 08:23:27;;;;;;;7.50;2.08;;;;;;;;;;5032450;28;20052;-66
2022/01/23 08:25:57;;;;;;;8.77;1.98;;;;;;;;;;4969274;28;20509;-64
2022/01/23 08:28:28;;;;;;;14.77;2.08;;;;;;;;;;5016999;28;20045;-66
2022/01/23 08:30:58;;;;;;;13.27;2.03;;;;;;;;;;5001755;28;20064;-64
2022/01/23 08:33:29;;;;;;;7.15;2.13;;;;;;;;;;5033675;28;20045;-66
2022/01/23 08:35:59;;;;;;;9.32;1.80;;;;;;;;;;5033799;28;20071;-65
2022/01/23 08:38:29;;;;;;;11.10;2.58;;;;;;;;;;5034025;28;20397;-66
2022/01/23 08:43:42;;;;;;;13.48;2.00;;;;;;;;;;5036830;28;20493;-66
2022/01/23 08:46:13;;;;;;;7.50;2.08;;;;;;;;;;5075766;28;20044;-65
2022/01/23 08:48:45;;;;;;;6.68;1.83;;;;;;;;;;5090649;28;20056;-65
2022/01/23 08:51:16;;;;;;;9.90;2.25;;;;;;;;;;5090717;28;20056;-65
2022/01/23 08:53:46;;;;;;;9.85;2.08;;;;;;;;;;5056865;28;20225;-66
2022/01/23 08:56:17;;;;;;;8.95;2.20;;;;;;;;;;5090697;28;20052;-66
2022/01/23 08:58:47;;;;;;;11.43;1.98;;;;;;;;;;5090661;28;20055;-65
2022/01/23 09:01:18;;;;;;;6.78;2.03;;;;;;;;;;5092693;28;20051;-65
2022/01/23 09:03:49;;;;;;;9.52;2.25;;;;;;;;;;5073327;28;20055;-65
2022/01/23 09:06:20;;;;;;;8.60;2.40;;;;;;;;;;5090500;28;20496;-66
2022/01/23 09:08:53;;;;;;;11.40;1.92;;;;;;;;;;5090072;28;20040;-65
2022/01/23 09:11:27;;;;;;;8.20;2.25;;;;;;;;;;5090127;28;20051;-66
2022/01/23 09:14:06;;;;;;;11.43;2.00;;;;;;;;;;5073177;28;20062;-65
2022/01/23 09:16:42;;;;;;;6.85;2.20;;;;;;;;;;5090094;28;20056;-65
2022/01/23 09:19:13;;;;;;;9.40;1.80;;;;;;;;;;5090302;28;20048;-66
2022/01/23 09:21:45;;;;;;;13.02;2.45;;;;;;;;;;5024209;28;20048;-65
2022/01/23 09:24:20;;;;;;;10.40;2.17;;;;;;;;;;5107180;28;20059;-65
2022/01/23 09:26:53;;;;;;;9.77;1.90;;;;;;;;;;5089721;28;20044;-66
2022/01/23 09:29:35;;;;;;;9.88;2.25;;;;;;;;;;5056289;28;20040;-64
2022/01/23 09:32:11;;;;;;;7.97;2.13;;;;;;;;;;5089833;28;20063;-65
2022/01/23 09:34:43;;;;;;;9.57;2.35;;;;;;;;;;5056916;28;20522;-66
2022/01/23 09:37:16;;;;;;;8.88;2.08;;;;;;;;;;5072567;28;20052;-66
2022/01/23 09:39:52;;;;;;;9.63;1.73;;;;;;;;;;5023502;28;20056;-65
2022/01/23 09:42:28;;;;;;;4.30;1.52;;;;;;;;;;5089548;28;20051;-66
2022/01/23 09:45:05;;;;;;;9.68;1.90;;;;;;;;;;5089845;28;20060;-66
2022/01/23 09:47:39;;;;;;;9.95;2.22;;;;;;;;;;5089631;28;20078;-66
2022/01/23 09:50:12;;;;;;;8.20;1.92;;;;;;;;;;5056156;28;20059;-66
2022/01/23 09:52:44;;;;;;;8.02;1.83;;;;;;;;;;5023508;28;20063;-66
2022/01/23 09:55:15;;;;;;;11.52;1.80;;;;;;;;;;5073108;28;20056;-66
2022/01/23 09:57:48;;;;;;;9.55;1.80;;;;;;;;;;5055879;28;20063;-65
2022/01/23 10:00:24;;;;;;;5.72;1.70;;;;;;;;;;5056625;28;20059;-66
2022/01/23 10:02:57;;;;;;;11.82;1.95;;;;;;;;;;5073547;28;20056;-66
2022/01/23 10:05:29;;;;;;;7.30;1.60;;;;;;;;;;5089380;28;20589;-66
2022/01/23 10:08:00;;;;;;;10.23;2.53;;;;;;;;;;5089217;28;20404;-66
2022/01/23 10:10:35;;;;;;;7.00;1.77;;;;;;;;;;5089117;28;20047;-65
2022/01/23 10:13:10;;;;;;;5.32;1.90;;;;;;;;;;5074094;28;20060;-66
2022/01/23 10:15:41;;;;;;;6.38;2.17;;;;;;;;;;5039334;28;20044;-66
2022/01/23 10:18:11;;;;;;;8.68;1.65;;;;;;;;;;5089102;28;20059;-66
2022/01/23 10:20:42;;;;;;;8.95;2.53;;;;;;;;;;5072162;28;20056;-66
2022/01/23 10:23:14;;;;;;;6.50;1.80;;;;;;;;;;5089082;28;20063;-66
2022/01/23 10:25:47;;;;;;;5.43;2.17;;;;;;;;;;5088606;28;20060;-66
2022/01/23 10:28:21;;;;;;;8.05;2.05;;;;;;;;;;5089202;28;20059;-66
2022/01/23 10:30:55;;;;;;;13.55;2.05;;;;;;;;;;5072830;28;20048;-65
2022/01/23 10:33:32;;;;;;;6.30;1.73;;;;;;;;;;5089320;28;20056;-66
2022/01/23 10:36:05;;;;;;;7.70;1.95;;;;;;;;;;5019326;28;20428;-66
2022/01/23 10:38:45;;;;;;;6.80;1.80;;;;;;;;;;5068605;28;20049;-66
2022/01/23 10:50:03;;;;;;;10.23;1.92;;;;;;;;;;5039155;28;20056;-65
2022/01/23 10:52:37;;;;;;;9.45;1.73;;;;;;;;;;5055500;28;20056;-66
2022/01/23 10:55:29;;;;;;;7.43;1.63;;;;;;;;;;5055726;28;20484;-66
2022/01/23 10:58:06;;;;;;;8.07;1.70;;;;;;;;;;5032056;28;20058;-66
2022/01/23 11:00:38;;;;;;;5.97;1.73;;;;;;;;;;5015617;28;20050;-65
2022/01/23 11:03:21;;;;;;;3.90;1.80;;;;;;;;;;5016011;28;20057;-66
2022/01/23 11:05:53;;;;;;;4.43;1.60;;;;;;;;;;5032249;28;20045;-66
2022/01/23 11:08:31;;;;;;;6.13;2.42;;;;;;;;;;5032130;28;20410;-66
2022/01/23 11:11:06;;;;;;;6.22;1.75;;;;;;;;;;4999240;28;20666;-66
2022/01/23 11:19:41;;;;;;;8.15;2.10;;;;;;;;;;5041541;28;20064;-66
2022/01/23 11:22:28;;;;;;;6.63;1.60;;;;;;;;;;5039824;28;20488;-66
2022/01/23 11:25:07;;;;;;;2.72;1.20;;;;;;;;;;5054819;28;20436;-67
2022/01/23 11:27:39;;;;;;;5.47;1.40;;;;;;;;;;5071715;28;20538;-67
2022/01/23 11:30:13;;;;;;;5.50;1.40;;;;;;;;;;5054605;28;20048;-67
2022/01/23 11:32:43;;;;;;;3.13;1.50;;;;;;;;;;5054975;28;20073;-67
2022/01/23 11:35:19;;;;;;;3.38;1.20;;;;;;;;;;5039351;28;20059;-66
2022/01/23 11:37:52;;;;;;;5.57;1.50;;;;;;;;;;5075461;28;20127;-66
2022/01/23 11:40:38;;;;;;;5.45;1.65;;;;;;;;;;5091865;28;20056;-67
2022/01/23 11:54:50;;;;;;;4.03;1.25;;;;;;;;;;5091759;28;20056;-66
2022/01/23 11:57:42;;;;;;;7.80;1.10;;;;;;;;;;5075287;28;20052;-66
2022/01/23 12:00:29;;;;;;;4.05;1.20;;;;;;;;;;5091097;28;20052;-67
2022/01/23 12:03:14;;;;;;;5.30;1.40;;;;;;;;;;5075305;28;20055;-66
2022/01/23 12:05:49;;;;;;;8.48;1.50;;;;;;;;;;5091387;28;20044;-66
2022/01/23 12:08:21;;;;;;;6.75;1.45;;;;;;;;;;5091523;28;20048;-67
2022/01/23 12:17:08;;;;;;;4.20;1.00;;;;;;;;;;5053763;28;20523;-67
2022/01/23 12:19:53;;;;;;;5.10;1.35;;;;;;;;;;5053613;28;20063;-66
2022/01/23 12:22:25;;;;;;;4.15;0.90;;;;;;;;;;5070591;28;20060;-67
2022/01/23 12:24:58;;;;;;;3.33;1.10;;;;;;;;;;5020793;28;20044;-68
2022/01/23 12:27:33;;;;;;;3.95;0.90;;;;;;;;;;5070806;28;20060;-66
2022/01/23 12:30:21;;;;;;;3.70;0.80;;;;;;;;;;5070567;28;20052;-67
2022/01/23 12:33:28;;;;;;;3.63;0.95;;;;;;;;;;5071047;28;20520;-66
2022/01/23 12:36:07;;;;;;;4.78;0.90;;;;;;;;;;5054885;28;20044;-71
2022/01/23 12:38:44;;;;;;;4.55;1.10;;;;;;;;;;5070608;28;20056;-68
2022/01/23 12:41:52;;;;;;;2.97;0.65;;;;;;;;;;5070730;28;20049;-72
2022/01/23 12:44:27;;;;;;;2.22;0.85;;;;;;;;;;5070493;28;20068;-67
2022/01/23 12:47:03;;;;;;;6.88;3.40;;;;;;;;;;5070084;28;20464;-71
2022/01/23 12:49:48;;;;;;;2.83;1.20;;;;;;;;;;5070140;28;20044;-76
2022/01/23 12:52:23;;;;;;;4.88;1.02;;;;;;;;;;5091698;28;20052;-70
2022/01/23 12:54:59;;;;;;;3.38;1.95;;;;;;;;;;5092792;28;20047;-70
2022/01/23 12:57:37;;;;;;;3.30;1.60;;;;;;;;;;5057911;28;20048;-67
2022/01/23 13:00:12;;;;;;;5.88;1.70;;;;;;;;;;5057298;28;20063;-66
2022/01/23 13:02:47;;;;;;;4.88;0.80;;;;;;;;;;5092504;28;20043;-67
2022/01/23 13:05:18;;;;;;;2.08;1.05;;;;;;;;;;5092799;28;20044;-68
2022/01/23 13:08:06;;;;;;;8.25;1.30;;;;;;;;;;5056934;28;20044;-67
2022/01/23 13:16:16;;;;;;;5.35;1.13;;;;;;;;;;5092240;28;20040;-68
2022/01/23 13:30:53;;;;;;;2.88;1.40;;;;;;;;;;5029661;28;20513;-66
2022/01/23 13:33:25;;;;;;;2.90;1.10;;;;;;;;;;4997415;28;20064;-66
2022/01/23 13:35:55;;;;;;;2.28;1.30;;;;;;;;;;5029380;28;20049;-66
2022/01/23 13:38:26;;;;;;;2.30;1.20;;;;;;;;;;5012901;28;20052;-65
2022/01/23 13:41:04;;;;;;;3.30;1.10;;;;;;;;;;5029439;28;20052;-69
2022/01/23 13:52:00;;;;;;;1.77;1.00;;;;;;;;;;5029218;28;20057;-66
2022/01/23 14:02:33;;;;;;;2.05;1.23;;;;;;;;;;5046465;28;20060;-65
2022/01/23 14:05:14;;;;;;;2.45;1.02;;;;;;;;;;5032608;28;20049;-69
2022/01/23 14:07:54;;;;;;;4.10;1.20;;;;;;;;;;5028945;28;20049;-67
2022/01/23 14:10:36;;;;;;;6.70;1.15;;;;;;;;;;5028966;28;20064;-70
2022/01/23 14:13:16;;;;;;;5.78;1.10;;;;;;;;;;4996157;28;20054;-66
2022/01/23 14:15:50;;;;;;;3.35;1.40;;;;;;;;;;4979913;28;20048;-65
2022/01/23 14:18:24;;;;;;;3.08;0.95;;;;;;;;;;5008834;28;20053;-66
2022/01/23 14:21:00;;;;;;;2.38;1.15;;;;;;;;;;4977175;28;20065;-65
2022/01/23 14:23:33;;;;;;;1.45;0.90;;;;;;;;;;4988971;28;20046;-65
2022/01/23 14:26:13;;;;;;;2.30;1.80;;;;;;;;;;4947971;28;20406;-64
2022/01/23 14:28:47;;;;;;;2.70;1.15;;;;;;;;;;5028655;28;20053;-66
2022/01/23 14:31:24;;;;;;;2.63;1.33;;;;;;;;;;4995793;28;20493;-65
2022/01/23 14:33:59;;;;;;;4.97;1.50;;;;;;;;;;5028918;28;20060;-65
2022/01/23 14:36:36;;;;;;;2.55;1.30;;;;;;;;;;5012775;28;20061;-66
2022/01/23 14:39:11;;;;;;;4.88;1.20;;;;;;;;;;5008834;28;20046;-65
2022/01/23 14:41:46;;;;;;;6.90;1.35;;;;;;;;;;5008789;28;20049;-66
2022/01/23 14:44:22;;;;;;;6.45;1.55;;;;;;;;;;4989760;28;20050;-63
2022/01/23 14:46:57;;;;;;;4.90;1.30;;;;;;;;;;5008833;28;20054;-64
2022/01/23 14:49:30;;;;;;;4.45;1.23;;;;;;;;;;5009049;28;20054;-64
2022/01/23 14:52:02;;;;;;;2.10;1.05;;;;;;;;;;5008505;28;20061;-64
2022/01/23 14:54:33;;;;;;;4.13;1.10;;;;;;;;;;5008965;28;20058;-65
2022/01/23 14:57:06;;;;;;;1.63;1.20;;;;;;;;;;4992281;28;20064;-63
2022/01/23 14:59:37;;;;;;;3.20;1.20;;;;;;;;;;5008927;28;20688;-67
2022/01/23 15:02:08;;;;;;;;;;;;;;;;;;5028396;28;20065;-65
2022/01/23 15:04:48;;;;;;;2.88;1.10;;;;;;;;;;5031651;28;19928;-65
2022/01/23 15:07:18;;;;;;;1.67;0.95;;;;;;;;;;5031973;28;20057;-67
2022/01/23 15:09:50;;;;;;;2.88;1.13;;;;;;;;;;4979110;28;20053;-64
2022/01/23 15:12:21;;;;;;;2.40;1.10;;;;;;;;;;5028048;28;20064;-64
2022/01/23 15:14:52;;;;;;;1.70;0.90;;;;;;;;;;5028390;28;20060;-63
2022/01/23 15:17:24;;;;;;;2.25;1.13;;;;;;;;;;4994951;28;20053;-63
2022/01/23 15:19:55;;;;;;;1.95;1.02;;;;;;;;;;4995128;28;20045;-64
2022/01/23 15:22:25;;;;;;;2.45;1.33;;;;;;;;;;5042228;28;20057;-66
2022/01/23 15:24:56;;;;;;;2.80;1.25;;;;;;;;;;5028374;28;20049;-65
2022/01/23 15:27:26;;;;;;;2.88;1.13;;;;;;;;;;5027711;28;20060;-66
2022/01/23 15:29:56;;;;;;;2.72;1.10;;;;;;;;;;5028467;28;20053;-65
2022/01/23 15:32:26;;;;;;;2.10;1.10;;;;;;;;;;5027770;28;20057;-67
2022/01/23 15:34:57;;;;;;;7.25;1.10;;;;;;;;;;4981691;28;20049;-62
2022/01/23 15:37:27;;;;;;;2.13;0.98;;;;;;;;;;5031800;28;20061;-65
2022/01/23 15:39:58;;;;;;;3.75;0.93;;;;;;;;;;5031803;28;20179;-62
2022/01/23 15:42:29;;;;;;;4.13;1.00;;;;;;;;;;4998869;28;20049;-65
2022/01/23 15:45:00;;;;;;;3.13;1.40;;;;;;;;;;4998907;28;20057;-66
2022/01/23 15:47:31;;;;;;;2.13;1.00;;;;;;;;;;5026503;28;20056;-64
2022/01/23 15:50:02;;;;;;;1.65;1.15;;;;;;;;;;5051680;28;20057;-65
2022/01/23 15:52:33;;;;;;;2.30;0.80;;;;;;;;;;5018724;28;20053;-64
2022/01/23 15:55:05;;;;;;;1.83;1.00;;;;;;;;;;5031314;28;20069;-67
2022/01/23 15:57:36;;;;;;;8.63;1.63;;;;;;;;;;5031335;28;20502;-64
2022/01/23 16:00:08;;;;;;;2.05;1.10;;;;;;;;;;4999258;28;20057;-66
2022/01/23 16:02:41;;;;;;;3.45;1.20;;;;;;;;;;5055418;28;20538;-63
2022/01/23 16:05:12;;;;;;;3.60;1.52;;;;;;;;;;5071246;28;20566;-67
2022/01/23 16:07:43;;;;;;;2.97;1.10;;;;;;;;;;5054873;28;20067;-68
2022/01/23 16:10:13;;;;;;;3.63;1.08;;;;;;;;;;5071257;28;20036;-72
2022/01/23 16:12:43;;;;;;;4.53;1.10;;;;;;;;;;5070838;28;20099;-67
2022/01/23 16:15:16;;;;;;;4.13;1.77;;;;;;;;;;5022332;28;20432;-68
2022/01/23 16:17:48;;;;;;;3.75;1.38;;;;;;;;;;5071695;28;20477;-73
2022/01/23 16:20:19;;;;;;;5.25;1.20;;;;;;;;;;5070807;28;20048;-65
2022/01/23 16:22:49;;;;;;;2.92;1.23;;;;;;;;;;5033909;28;20547;-66
2022/01/23 16:25:22;;;;;;;3.35;1.25;;;;;;;;;;5050849;28;20064;-70
2022/01/23 16:27:53;;;;;;;2.72;1.38;;;;;;;;;;5050240;28;20169;-66
2022/01/23 16:30:23;;;;;;;2.13;1.00;;;;;;;;;;5050794;28;20051;-64
2022/01/23 16:32:56;;;;;;;3.95;1.23;;;;;;;;;;5029751;28;20053;-64
2022/01/23 16:35:27;;;;;;;2.72;1.30;;;;;;;;;;5070730;28;20068;-65
2022/01/23 16:37:57;;;;;;;2.22;1.10;;;;;;;;;;5070326;28;20048;-66
2022/01/23 16:40:28;;;;;;;3.72;1.10;;;;;;;;;;5054315;28;20049;-65
2022/01/23 16:42:58;;;;;;;3.03;1.30;;;;;;;;;;5036829;28;20052;-62
2022/01/23 16:45:29;;;;;;;1.98;1.17;;;;;;;;;;5037444;28;20053;-65
2022/01/23 16:48:01;;;;;;;1.83;1.00;;;;;;;;;;5036819;28;20056;-62
2022/01/23 16:50:32;;;;;;;3.97;1.65;;;;;;;;;;5038169;28;20412;-64
2022/01/23 16:53:02;;;;;;;;;;;;;;;;;;5030346;28;20048;-65
2022/01/23 16:55:32;;;;;;;2.75;1.63;;;;;;;;;;5030403;28;19928;-65
2022/01/23 16:58:03;;;;;;;2.42;1.30;;;;;;;;;;5033139;28;20052;-65
2022/01/23 17:00:34;;;;;;;2.00;1.20;;;;;;;;;;5045229;28;20052;-66
2022/01/23 17:03:09;;;;;;;2.60;1.13;;;;;;;;;;5070042;28;20052;-67
2022/01/23 17:05:42;;;;;;;3.38;1.00;;;;;;;;;;5070012;28;20068;-67
2022/01/23 17:08:14;;;;;;;3.47;1.13;;;;;;;;;;5033691;28;20063;-66
2022/01/23 17:10:46;;;;;;;4.35;1.13;;;;;;;;;;5050064;28;20111;-65
2022/01/23 17:13:16;;;;;;;2.55;1.00;;;;;;;;;;5016558;28;20049;-66
2022/01/23 17:15:47;;;;;;;2.25;1.00;;;;;;;;;;5049644;28;20060;-64
2022/01/23 17:18:17;;;;;;;4.75;1.10;;;;;;;;;;5013266;28;20057;-63
2022/01/23 17:20:48;;;;;;;2.88;1.00;;;;;;;;;;5030062;28;20049;-65
2022/01/23 17:23:18;;;;;;;3.00;1.05;;;;;;;;;;5029449;28;20061;-64
2022/01/23 17:25:48;;;;;;;1.95;1.08;;;;;;;;;;5029902;28;20116;-64
2022/01/23 17:28:19;;;;;;;3.50;1.45;;;;;;;;;;5009481;28;20061;-66
2022/01/23 17:30:49;;;;;;;1.48;1.00;;;;;;;;;;5009433;28;20469;-62
2022/01/23 17:33:19;;;;;;;2.80;1.10;;;;;;;;;;5009861;28;20065;-63
2022/01/23 17:35:51;;;;;;;2.75;1.02;;;;;;;;;;4972372;28;20046;-62
2022/01/23 17:38:22;;;;;;;7.65;1.20;;;;;;;;;;5029453;28;20425;-63
2022/01/23 17:40:52;;;;;;;6.20;1.13;;;;;;;;;;5012802;28;20147;-63
2022/01/23 17:43:23;;;;;;;3.10;1.10;;;;;;;;;;5012727;28;20075;-63
2022/01/23 17:45:54;;;;;;;4.05;1.30;;;;;;;;;;5012796;28;20485;-63
2022/01/23 17:48:48;;;;;;;4.03;1.20;;;;;;;;;;5025061;28;20042;-63
2022/01/23 17:51:18;;;;;;;2.10;1.10;;;;;;;;;;5015531;28;20049;-63
2022/01/23 17:53:49;;;;;;;2.70;1.02;;;;;;;;;;5028598;28;20061;-63
2022/01/23 17:56:20;;;;;;;;;;;;;;;;;;5055814;28;20061;-65
2022/01/23 17:58:51;;;;;;;2.70;1.13;;;;;;;;;;5044219;28;19921;-64
2022/01/23 18:01:22;;;;;;;3.33;1.08;;;;;;;;;;5033051;28;20053;-67
2022/01/23 18:03:54;;;;;;;3.42;1.10;;;;;;;;;;5048524;28;20493;-66
2022/01/23 18:06:27;;;;;;;8.88;1.70;;;;;;;;;;5077295;28;20055;-60
2022/01/23 18:09:00;;;;;;;14.35;2.58;;;;;;;;;;5030240;28;20060;-63
2022/01/23 18:11:31;;;;;;;17.02;2.47;;;;;;;;;;5079142;28;20159;-66
2022/01/23 18:14:07;;;;;;;3.67;1.60;;;;;;;;;;5088980;28;20175;-60
2022/01/23 18:16:38;;;;;;;5.15;1.52;;;;;;;;;;5052462;28;20063;-60
2022/01/23 18:19:09;;;;;;;8.77;2.75;;;;;;;;;;5088826;28;20076;-60
2022/01/23 18:21:52;;;;;;;6.00;1.95;;;;;;;;;;5088903;28;20052;-61
2022/01/23 18:24:22;;;;;;;6.75;1.60;;;;;;;;;;5088797;28;20048;-61
2022/01/23 18:26:55;;;;;;;3.63;1.40;;;;;;;;;;5084482;28;20044;-63
2022/01/23 18:29:25;;;;;;;4.47;1.30;;;;;;;;;;5081913;28;20063;-66
2022/01/23 18:31:56;;;;;;;4.55;1.67;;;;;;;;;;5060572;28;20424;-64
2022/01/23 18:34:26;;;;;;;7.13;1.25;;;;;;;;;;5034235;28;20479;-63
2022/01/23 18:36:57;;;;;;;3.10;1.48;;;;;;;;;;5050752;28;20056;-62
2022/01/23 18:39:29;;;;;;;3.55;1.30;;;;;;;;;;5065813;28;20060;-62
2022/01/23 18:42:01;;;;;;;3.17;1.30;;;;;;;;;;5065415;28;20056;-64
2022/01/23 18:44:32;;;;;;;3.05;1.05;;;;;;;;;;5089939;28;20052;-62
2022/01/23 18:47:04;;;;;;;7.80;0.93;;;;;;;;;;5071714;28;20052;-64
2022/01/23 18:49:35;;;;;;;2.83;0.80;;;;;;;;;;5090705;28;20040;-64
2022/01/23 18:52:05;;;;;;;2.63;0.80;;;;;;;;;;5090695;28;20484;-63
2022/01/23 18:54:42;;;;;;;6.65;1.08;;;;;;;;;;5089792;28;20048;-63
2022/01/23 18:57:39;;;;;;;6.63;1.20;;;;;;;;;;5089120;28;20044;-63